createdAt,value
2018-08-22T00:01:39.167Z,29.14
2018-08-22T00:04:12.250Z,29.23
2018-08-22T00:06:45.227Z,29.30
2018-08-22T00:09:18.244Z,29.37
2018-08-22T00:11:52.696Z,29.44
2018-08-22T00:14:25.619Z,29.53
2018-08-22T00:16:58.552Z,29.64
2018-08-22T00:19:31.396Z,29.74
2018-08-22T00:22:04.282Z,29.89
2018-08-22T00:24:38.700Z,30.08
2018-08-22T00:27:11.624Z,30.27
2018-08-22T00:29:44.582Z,30.42
2018-08-22T00:32:17.571Z,30.56
2018-08-22T00:34:50.581Z,30.69
2018-08-22T00:37:23.483Z,30.86
2018-08-22T00:39:56.412Z,31.00
2018-08-22T00:42:29.359Z,31.06
2018-08-22T00:45:02.166Z,31.13
2018-08-22T00:47:35.067Z,31.24
2018-08-22T00:50:07.993Z,31.39
2018-08-22T00:52:40.944Z,31.52
2018-08-22T00:55:14.010Z,31.64
2018-08-22T00:57:46.945Z,31.73
2018-08-22T01:00:19.933Z,31.90
2018-08-22T01:02:52.993Z,32.01
2018-08-22T01:05:26.286Z,32.07
2018-08-22T01:08:00.017Z,32.06
2018-08-22T01:10:33.461Z,32.13
2018-08-22T01:13:06.908Z,32.26
2018-08-22T01:15:40.352Z,32.48
2018-08-22T01:18:13.919Z,32.84
2018-08-22T01:20:47.822Z,33.08
2018-08-22T01:23:21.298Z,33.35
2018-08-22T01:25:55.073Z,33.51
2018-08-22T01:28:28.431Z,33.69
2018-08-22T01:31:01.461Z,33.79
2018-08-22T01:33:34.378Z,33.87
2018-08-22T01:36:07.222Z,33.85
2018-08-22T01:38:40.176Z,33.76
2018-08-22T01:41:13.051Z,33.71
2018-08-22T01:43:45.990Z,33.60
2018-08-22T01:46:18.761Z,33.39
2018-08-22T01:48:51.716Z,33.36
2018-08-22T01:51:24.874Z,33.27
2018-08-22T01:53:57.800Z,33.26
2018-08-22T01:56:30.695Z,33.31
2018-08-22T01:59:03.504Z,33.33
2018-08-22T02:01:36.327Z,33.17
2018-08-22T02:04:09.377Z,33.04
2018-08-22T02:06:42.282Z,32.96
2018-08-22T02:09:15.127Z,32.95
2018-08-22T02:11:47.920Z,32.86
2018-08-22T02:14:20.860Z,32.79
2018-08-22T02:16:53.873Z,32.86
2018-08-22T02:19:26.901Z,32.91
2018-08-22T02:21:59.784Z,33.08
2018-08-22T02:24:32.693Z,33.70
2018-08-22T02:27:05.604Z,34.16
2018-08-22T02:29:38.458Z,34.08
2018-08-22T02:32:11.825Z,34.09
2018-08-22T02:34:45.601Z,34.09
2018-08-22T02:37:18.386Z,34.61
2018-08-22T02:39:52.504Z,35.22
2018-08-22T02:42:25.407Z,35.53
2018-08-22T02:44:58.272Z,35.92
2018-08-22T02:47:31.333Z,36.23
2018-08-22T02:50:04.256Z,36.41
2018-08-22T02:52:37.172Z,36.12
2018-08-22T02:55:10.126Z,35.77
2018-08-22T02:57:42.999Z,35.80
2018-08-22T03:00:15.944Z,35.41
2018-08-22T03:02:49.792Z,34.89
2018-08-22T03:05:23.001Z,34.46
2018-08-22T03:07:56.039Z,34.17
2018-08-22T03:10:29.276Z,33.91
2018-08-22T03:13:02.356Z,33.73
2018-08-22T03:15:35.160Z,33.58
2018-08-22T03:18:08.141Z,33.49
2018-08-22T03:20:41.052Z,33.41
2018-08-22T03:23:13.984Z,33.35
2018-08-22T03:25:47.199Z,33.29
2018-08-22T03:28:20.166Z,33.11
2018-08-22T03:30:53.000Z,33.01
2018-08-22T03:33:25.891Z,32.82
2018-08-22T03:35:58.751Z,32.67
2018-08-22T03:38:31.656Z,32.48
2018-08-22T03:41:04.466Z,32.19
2018-08-22T03:43:37.295Z,32.13
2018-08-22T03:46:10.125Z,31.79
2018-08-22T03:48:42.950Z,31.54
2018-08-22T03:51:15.830Z,31.25
2018-08-22T03:53:48.688Z,31.10
2018-08-22T03:56:21.461Z,30.95
2018-08-22T03:58:54.268Z,30.77
2018-08-22T04:01:27.191Z,30.65
2018-08-22T04:04:00.142Z,30.48
2018-08-22T04:06:33.859Z,30.42
2018-08-22T04:09:07.204Z,30.40
2018-08-22T04:11:40.126Z,30.31
2018-08-22T04:14:12.967Z,30.25
2018-08-22T04:16:45.927Z,30.23
2018-08-22T04:19:18.922Z,30.27
2018-08-22T04:21:52.113Z,30.30
2018-08-22T04:24:25.253Z,30.37
2018-08-22T04:26:58.091Z,30.49
2018-08-22T04:29:31.073Z,30.59
2018-08-22T04:32:03.949Z,30.69
2018-08-22T04:34:36.808Z,30.75
2018-08-22T04:37:09.716Z,30.80
2018-08-22T04:39:42.666Z,30.88
2018-08-22T04:42:15.791Z,30.92
2018-08-22T04:44:49.029Z,31.04
2018-08-22T04:47:21.918Z,31.33
2018-08-22T04:49:54.923Z,31.75
2018-08-22T04:52:27.846Z,32.20
2018-08-22T04:55:01.790Z,32.53
2018-08-22T04:57:34.736Z,32.63
2018-08-22T05:00:08.518Z,32.55
2018-08-22T05:02:41.715Z,32.85
2018-08-22T05:05:15.120Z,33.08
2018-08-22T05:07:47.893Z,33.25
2018-08-22T05:10:20.715Z,33.23
2018-08-22T05:12:53.611Z,33.14
2018-08-22T05:15:26.668Z,33.00
2018-08-22T05:18:05.876Z,32.93
2018-08-22T05:20:38.827Z,32.84
2018-08-22T05:23:11.827Z,32.92
2018-08-22T05:25:44.812Z,32.90
2018-08-22T05:28:17.700Z,32.82
2018-08-22T05:30:50.654Z,32.88
2018-08-22T05:33:23.759Z,32.92
2018-08-22T05:35:56.751Z,32.87
2018-08-22T05:38:29.557Z,32.76
2018-08-22T05:41:02.480Z,32.54
2018-08-22T05:43:35.838Z,32.39
2018-08-22T05:46:08.731Z,32.17
2018-08-22T05:48:41.613Z,31.96
2018-08-22T05:51:17.030Z,31.78
2018-08-22T05:53:50.031Z,31.67
2018-08-22T05:56:23.066Z,31.55
2018-08-22T05:58:56.920Z,31.37
2018-08-22T06:01:30.436Z,31.17
2018-08-22T06:04:03.311Z,31.07
2018-08-22T06:06:36.306Z,31.01
2018-08-22T06:09:13.607Z,31.01
2018-08-22T06:11:46.876Z,30.95
2018-08-22T06:14:19.871Z,30.90
2018-08-22T06:16:52.773Z,30.87
2018-08-22T06:19:25.664Z,30.82
2018-08-22T06:21:58.501Z,30.75
2018-08-22T06:24:31.434Z,30.74
2018-08-22T06:27:04.607Z,30.75
2018-08-22T06:29:37.425Z,30.73
2018-08-22T06:32:10.354Z,30.70
2018-08-22T06:34:43.335Z,30.65
2018-08-22T06:37:16.565Z,30.59
2018-08-22T06:39:49.578Z,30.58
2018-08-22T06:42:23.387Z,30.45
2018-08-22T06:44:56.409Z,30.30
2018-08-22T06:47:29.420Z,30.22
2018-08-22T06:50:02.437Z,30.06
2018-08-22T06:52:35.291Z,30.00
2018-08-22T06:55:08.486Z,29.92
2018-08-22T06:57:41.528Z,29.88
2018-08-22T07:00:14.415Z,29.90
2018-08-22T07:02:47.282Z,29.88
2018-08-22T07:05:20.257Z,29.93
2018-08-22T07:07:53.206Z,29.90
2018-08-22T07:10:27.602Z,29.93
2018-08-22T07:13:01.232Z,29.98
2018-08-22T07:15:35.035Z,30.00
2018-08-22T07:17:08.704Z,29.90
2018-08-22T07:17:57.020Z,29.87
2018-08-22T07:18:35.125Z,29.86
2018-08-22T07:19:13.027Z,29.84
2018-08-22T07:19:50.862Z,29.80
2018-08-22T07:20:28.743Z,29.78
2018-08-22T07:21:06.663Z,29.77
2018-08-22T07:21:44.520Z,29.84
2018-08-22T07:22:22.569Z,29.79
2018-08-22T07:23:00.686Z,29.85
2018-08-22T07:23:38.666Z,29.86
2018-08-22T07:24:16.917Z,29.87
2018-08-22T07:24:54.939Z,29.90
2018-08-22T07:25:32.845Z,29.92
2018-08-22T07:26:11.426Z,29.90
2018-08-22T07:26:49.851Z,29.97
2018-08-22T07:27:27.773Z,29.99
2018-08-22T07:28:06.027Z,30.00
2018-08-22T07:28:44.045Z,30.02
2018-08-22T07:29:22.244Z,30.00
2018-08-22T07:30:00.834Z,29.99
2018-08-22T07:30:38.922Z,30.00
2018-08-22T07:31:17.016Z,30.01
2018-08-22T07:31:54.981Z,30.01
2018-08-22T07:32:33.232Z,29.98
2018-08-22T07:33:11.245Z,30.03
2018-08-22T07:33:49.184Z,30.01
2018-08-22T07:34:27.013Z,30.01
2018-08-22T07:35:05.913Z,30.00
2018-08-22T07:35:43.871Z,30.00
2018-08-22T07:36:21.972Z,29.98
2018-08-22T07:36:59.893Z,29.97
2018-08-22T07:37:37.865Z,29.95
2018-08-22T07:38:15.938Z,29.90
2018-08-22T07:38:54.057Z,29.88
2018-08-22T07:39:31.982Z,29.87
2018-08-22T07:40:11.890Z,29.83
2018-08-22T07:40:50.099Z,29.82
2018-08-22T07:41:27.987Z,29.82
2018-08-22T07:42:06.069Z,29.81
2018-08-22T07:42:43.963Z,29.77
2018-08-22T07:43:21.939Z,29.79
2018-08-22T07:43:59.913Z,29.78
2018-08-22T07:44:37.697Z,29.78
2018-08-22T07:45:15.753Z,29.76
2018-08-22T07:45:53.719Z,29.76
2018-08-22T07:46:45.589Z,29.77
2018-08-22T07:47:23.581Z,29.77
2018-08-22T07:48:04.583Z,29.76
2018-08-22T07:48:42.646Z,29.78
2018-08-22T07:49:20.753Z,29.79
2018-08-22T07:49:58.645Z,29.79
2018-08-22T07:50:36.867Z,29.78
2018-08-22T07:51:15.003Z,29.78
2018-08-22T07:51:55.823Z,29.76
2018-08-22T07:52:33.838Z,29.70
2018-08-22T07:53:11.814Z,29.65
2018-08-22T07:53:49.788Z,29.61
2018-08-22T07:54:41.825Z,29.60
2018-08-22T07:55:19.806Z,29.51
2018-08-22T07:55:57.722Z,29.48
2018-08-22T07:56:35.494Z,29.39
2018-08-22T07:57:13.776Z,29.41
2018-08-22T07:57:51.798Z,29.33
2018-08-22T07:58:29.657Z,29.36
2018-08-22T07:59:14.538Z,29.37
2018-08-22T07:59:52.600Z,29.32
2018-08-22T08:00:30.642Z,29.32
2018-08-22T08:01:08.602Z,29.33
2018-08-22T08:01:46.351Z,29.33
2018-08-22T08:02:24.267Z,29.31
2018-08-22T08:03:02.385Z,29.30
2018-08-22T08:03:40.307Z,29.32
2018-08-22T08:04:18.341Z,29.32
2018-08-22T08:04:56.285Z,29.33
2018-08-22T08:05:34.089Z,29.32
2018-08-22T08:06:12.058Z,29.32
2018-08-22T08:06:49.849Z,29.27
2018-08-22T08:07:27.942Z,29.32
2018-08-22T08:08:05.904Z,29.28
2018-08-22T08:08:43.884Z,29.27
2018-08-22T08:09:23.835Z,29.27
2018-08-22T08:10:01.813Z,29.26
2018-08-22T08:10:39.885Z,29.26
2018-08-22T08:11:18.179Z,29.28
2018-08-22T08:11:56.014Z,29.28
2018-08-22T08:12:40.499Z,29.27
2018-08-22T08:13:22.459Z,29.26
2018-08-22T08:14:00.598Z,29.27
2018-08-22T08:14:41.980Z,29.29
2018-08-22T08:15:19.873Z,29.30
2018-08-22T08:15:57.740Z,29.29
2018-08-22T08:17:32.517Z,29.30
2018-08-22T08:18:10.463Z,29.31
2018-08-22T08:18:48.316Z,29.31
2018-08-22T08:19:26.345Z,29.31
2018-08-22T08:20:04.286Z,29.33
2018-08-22T08:20:42.173Z,29.32
2018-08-22T08:21:20.153Z,29.34
2018-08-22T08:21:57.988Z,29.35
2018-08-22T08:22:35.899Z,29.38
2018-08-22T08:23:13.715Z,29.40
2018-08-22T08:23:51.749Z,29.42
2018-08-22T08:24:29.611Z,29.44
2018-08-22T08:25:07.662Z,29.45
2018-08-22T08:25:45.509Z,29.45
2018-08-22T08:26:23.597Z,29.44
2018-08-22T08:27:01.466Z,29.43
2018-08-22T08:27:39.436Z,29.38
2018-08-22T08:28:17.375Z,29.43
2018-08-22T08:28:55.270Z,29.44
2018-08-22T08:29:33.193Z,29.38
2018-08-22T08:30:11.440Z,29.44
2018-08-22T08:30:49.364Z,29.42
2018-08-22T08:31:27.261Z,29.43
2018-08-22T08:32:05.043Z,29.44
2018-08-22T08:32:42.999Z,29.44
2018-08-22T08:33:20.793Z,29.45
2018-08-22T08:33:58.752Z,29.48
2018-08-22T08:34:36.725Z,29.47
2018-08-22T08:35:14.644Z,29.47
2018-08-22T08:35:52.657Z,29.48
2018-08-22T08:36:30.773Z,29.49
2018-08-22T08:37:08.809Z,29.49
2018-08-22T08:38:00.408Z,29.50
2018-08-22T08:38:38.302Z,29.48
2018-08-22T08:39:16.218Z,29.47
2018-08-22T08:39:54.212Z,29.46
2018-08-22T08:40:32.207Z,29.48
2018-08-22T08:41:09.902Z,29.47
2018-08-22T08:41:47.941Z,29.46
2018-08-22T08:42:25.866Z,29.48
2018-08-22T08:43:05.174Z,29.47
2018-08-22T08:43:43.378Z,29.43
2018-08-22T08:44:21.192Z,29.40
2018-08-22T08:44:58.959Z,29.41
2018-08-22T08:45:37.038Z,29.35
2018-08-22T08:46:15.074Z,29.38
2018-08-22T08:46:53.020Z,29.37
2018-08-22T08:47:30.858Z,29.36
2018-08-22T08:48:08.741Z,29.36
2018-08-22T08:48:46.654Z,29.36
2018-08-22T08:49:25.374Z,29.36
2018-08-22T08:50:03.280Z,29.39
2018-08-22T08:50:41.424Z,29.40
2018-08-22T08:51:19.173Z,29.41
2018-08-22T08:52:04.025Z,29.43
2018-08-22T08:52:41.850Z,29.46
2018-08-22T08:53:20.832Z,29.48
2018-08-22T08:53:58.806Z,29.51
2018-08-22T08:54:36.717Z,29.53
2018-08-22T08:55:14.657Z,29.55
2018-08-22T08:55:52.520Z,29.57
2018-08-22T08:56:30.473Z,29.58
2018-08-22T08:57:08.570Z,29.56
2018-08-22T08:57:46.491Z,29.56
2018-08-22T08:58:24.439Z,29.57
2018-08-22T08:59:02.452Z,29.60
2018-08-22T08:59:40.371Z,29.60
2018-08-22T09:00:18.303Z,29.58
2018-08-22T09:00:56.486Z,29.61
2018-08-22T09:01:34.310Z,29.61
2018-08-22T09:02:12.262Z,29.62
2018-08-22T09:02:50.200Z,29.61
2018-08-22T09:03:28.224Z,29.62
2018-08-22T09:04:06.119Z,29.60
2018-08-22T09:04:43.999Z,29.63
2018-08-22T09:05:21.842Z,29.63
2018-08-22T09:05:59.749Z,29.66
2018-08-22T09:06:37.753Z,29.65
2018-08-22T09:07:15.864Z,29.65
2018-08-22T09:07:53.840Z,29.64
2018-08-22T09:08:31.690Z,29.65
2018-08-22T09:09:12.224Z,29.67
2018-08-22T09:09:50.530Z,29.68
2018-08-22T09:10:28.397Z,29.70
2018-08-22T09:11:06.341Z,29.68
2018-08-22T09:11:48.355Z,29.74
2018-08-22T09:12:26.191Z,29.75
2018-08-22T09:13:04.059Z,29.76
2018-08-22T09:13:47.218Z,29.78
2018-08-22T09:14:25.164Z,29.77
2018-08-22T09:15:03.124Z,29.74
2018-08-22T09:15:41.132Z,29.79
2018-08-22T09:16:19.276Z,29.80
2018-08-22T09:16:57.449Z,29.79
2018-08-22T09:17:35.437Z,29.79
2018-08-22T09:18:13.716Z,29.78
2018-08-22T09:18:51.498Z,29.75
2018-08-22T09:19:29.330Z,29.76
2018-08-22T09:20:07.667Z,29.74
2018-08-22T09:20:45.686Z,29.74
2018-08-22T09:21:23.609Z,29.74
2018-08-22T09:22:04.739Z,29.75
2018-08-22T09:22:44.111Z,29.75
2018-08-22T09:23:23.919Z,29.74
2018-08-22T09:24:02.759Z,29.76
2018-08-22T09:24:42.569Z,29.77
2018-08-22T09:25:22.411Z,29.76
2018-08-22T09:26:01.244Z,29.77
2018-08-22T09:26:40.396Z,29.76
2018-08-22T09:27:18.180Z,29.77
2018-08-22T09:27:56.003Z,29.71
2018-08-22T09:28:33.855Z,29.77
2018-08-22T09:29:12.652Z,29.70
2018-08-22T09:29:50.564Z,29.77
2018-08-22T09:30:28.450Z,29.77
2018-08-22T09:31:06.250Z,29.79
2018-08-22T09:31:49.361Z,29.80
2018-08-22T09:32:28.233Z,29.78
2018-08-22T09:33:06.130Z,29.75
2018-08-22T09:33:44.087Z,29.78
2018-08-22T09:34:22.048Z,29.79
2018-08-22T09:34:59.894Z,29.78
2018-08-22T09:35:38.077Z,29.78
2018-08-22T09:36:16.536Z,29.78
2018-08-22T09:36:54.487Z,29.76
2018-08-22T09:37:32.332Z,29.77
2018-08-22T09:38:10.258Z,29.76
2018-08-22T09:38:48.182Z,29.75
2018-08-22T09:39:26.098Z,29.70
2018-08-22T09:40:04.245Z,29.74
2018-08-22T09:40:42.042Z,29.73
2018-08-22T09:41:19.974Z,29.74
2018-08-22T09:41:57.884Z,29.72
2018-08-22T09:42:35.886Z,29.73
2018-08-22T09:43:13.699Z,29.73
2018-08-22T09:43:51.774Z,29.74
2018-08-22T09:44:29.755Z,29.74
2018-08-22T09:45:07.691Z,29.67
2018-08-22T09:45:45.538Z,29.68
2018-08-22T09:46:23.603Z,29.65
2018-08-22T09:47:03.149Z,29.63
2018-08-22T09:47:41.946Z,29.60
2018-08-22T09:48:19.902Z,29.55
2018-08-22T09:48:57.653Z,29.56
2018-08-22T09:49:35.607Z,29.55
2018-08-22T09:50:13.518Z,29.53
2018-08-22T09:50:51.501Z,29.53
2018-08-22T09:51:29.361Z,29.52
2018-08-22T09:52:07.181Z,29.51
2018-08-22T09:52:45.118Z,29.46
2018-08-22T09:53:24.149Z,29.45
2018-08-22T09:54:02.172Z,29.45
2018-08-22T09:54:52.677Z,29.44
2018-08-22T09:55:30.577Z,29.44
2018-08-22T09:56:09.616Z,29.44
2018-08-22T09:56:47.606Z,29.44
2018-08-22T09:57:26.645Z,29.44
2018-08-22T09:58:04.497Z,29.44
2018-08-22T09:58:42.430Z,29.44
2018-08-22T09:59:20.304Z,29.44
2018-08-22T09:59:58.241Z,29.44
2018-08-22T10:00:40.100Z,29.42
2018-08-22T10:01:21.987Z,29.43
2018-08-22T10:02:00.275Z,29.43
2018-08-22T10:02:38.170Z,29.42
2018-08-22T10:03:16.146Z,29.43
2018-08-22T10:03:59.603Z,29.44
2018-08-22T10:04:37.490Z,29.43
2018-08-22T10:05:15.423Z,29.45
2018-08-22T10:05:53.372Z,29.44
2018-08-22T10:06:40.503Z,29.44
2018-08-22T10:07:18.495Z,29.43
2018-08-22T10:07:56.776Z,29.43
2018-08-22T10:08:37.595Z,29.44
2018-08-22T10:09:21.965Z,29.45
2018-08-22T10:10:02.561Z,29.44
2018-08-22T10:10:43.082Z,29.44
2018-08-22T10:11:24.949Z,29.44
2018-08-22T10:12:03.356Z,29.40
2018-08-22T10:12:42.606Z,29.43
2018-08-22T10:13:21.336Z,29.45
2018-08-22T10:14:02.016Z,29.44
2018-08-22T10:14:40.026Z,29.43
2018-08-22T10:15:19.333Z,29.43
2018-08-22T10:15:59.917Z,29.44
2018-08-22T10:16:40.926Z,29.44
2018-08-22T10:17:19.153Z,29.43
2018-08-22T10:17:58.525Z,29.42
2018-08-22T10:18:39.009Z,29.44
2018-08-22T10:19:17.701Z,29.43
2018-08-22T10:19:58.979Z,29.37
2018-08-22T10:20:40.977Z,29.41
2018-08-22T10:21:18.977Z,29.40
2018-08-22T10:21:59.422Z,29.37
2018-08-22T10:22:41.923Z,29.34
2018-08-22T10:23:21.550Z,29.33
2018-08-22T10:23:59.814Z,29.32
2018-08-22T10:24:38.909Z,29.30
2018-08-22T10:25:17.481Z,29.25
2018-08-22T10:25:57.832Z,29.19
2018-08-22T10:26:38.534Z,29.19
2018-08-22T10:27:20.189Z,29.14
2018-08-22T10:28:01.156Z,29.12
2018-08-22T10:28:41.503Z,29.10
2018-08-22T10:29:20.445Z,29.08
2018-08-22T10:29:58.849Z,29.03
2018-08-22T10:30:38.514Z,29.06
2018-08-22T10:31:18.365Z,29.04
2018-08-22T10:31:58.709Z,29.01
2018-08-22T10:32:37.094Z,28.96
2018-08-22T10:33:15.663Z,28.95
2018-08-22T10:33:55.561Z,28.95
2018-08-22T10:34:35.056Z,28.95
2018-08-22T10:35:13.048Z,28.95
2018-08-22T10:35:51.025Z,28.95
2018-08-22T10:36:29.720Z,28.91
2018-08-22T10:37:11.528Z,28.92
2018-08-22T10:37:54.080Z,28.94
2018-08-22T10:38:34.026Z,28.94
2018-08-22T10:39:15.509Z,28.88
2018-08-22T10:39:53.967Z,28.88
2018-08-22T10:40:37.470Z,28.84
2018-08-22T10:41:16.125Z,28.79
2018-08-22T10:41:56.742Z,28.79
2018-08-22T10:42:38.333Z,28.78
2018-08-22T10:43:18.136Z,28.77
2018-08-22T10:43:57.792Z,28.77
2018-08-22T10:44:40.534Z,28.76
2018-08-22T10:45:18.341Z,28.74
2018-08-22T10:45:58.315Z,28.73
2018-08-22T10:46:36.646Z,28.73
2018-08-22T10:47:19.158Z,28.73
2018-08-22T10:48:01.409Z,28.73
2018-08-22T10:48:41.458Z,28.74
2018-08-22T10:49:19.418Z,28.74
2018-08-22T10:49:57.197Z,28.74
2018-08-22T10:50:35.265Z,28.74
2018-08-22T10:51:13.241Z,28.76
2018-08-22T10:51:51.069Z,28.75
2018-08-22T10:52:28.942Z,28.74
2018-08-22T10:53:06.838Z,28.71
2018-08-22T10:53:44.725Z,28.67
2018-08-22T10:54:22.544Z,28.65
2018-08-22T10:55:00.501Z,28.65
2018-08-22T10:55:38.350Z,28.64
2018-08-22T10:56:16.750Z,28.61
2018-08-22T10:56:54.662Z,28.60
2018-08-22T10:57:32.502Z,28.60
2018-08-22T10:58:10.475Z,28.59
2018-08-22T10:58:48.517Z,28.58
2018-08-22T10:59:26.532Z,28.59
2018-08-22T11:00:04.426Z,28.59
2018-08-22T11:00:42.409Z,28.57
2018-08-22T11:01:20.278Z,28.54
2018-08-22T11:01:58.206Z,28.47
2018-08-22T11:02:36.149Z,28.51
2018-08-22T11:03:14.142Z,28.50
2018-08-22T11:03:52.118Z,28.48
2018-08-22T11:04:30.029Z,28.46
2018-08-22T11:05:08.080Z,28.46
2018-08-22T11:05:45.902Z,28.45
2018-08-22T11:06:23.787Z,28.44
2018-08-22T11:07:01.723Z,28.37
2018-08-22T11:07:39.765Z,28.42
2018-08-22T11:08:17.534Z,28.36
2018-08-22T11:08:55.462Z,28.41
2018-08-22T11:09:33.410Z,28.40
2018-08-22T11:10:11.448Z,28.41
2018-08-22T11:10:49.325Z,28.40
2018-08-22T11:11:27.181Z,28.42
2018-08-22T11:12:05.101Z,28.42
2018-08-22T11:12:43.763Z,28.43
2018-08-22T11:13:21.683Z,28.43
2018-08-22T11:13:59.812Z,28.42
2018-08-22T11:14:37.808Z,28.41
2018-08-22T11:15:15.638Z,28.42
2018-08-22T11:15:53.846Z,28.43
2018-08-22T11:16:31.802Z,28.45
2018-08-22T11:17:09.642Z,28.45
2018-08-22T11:17:47.638Z,28.46
2018-08-22T11:18:25.584Z,28.47
2018-08-22T11:19:03.682Z,28.48
2018-08-22T11:19:41.737Z,28.47
2018-08-22T11:20:20.495Z,28.49
2018-08-22T11:20:56.066Z,28.50
2018-08-22T11:21:42.751Z,28.51
2018-08-22T11:22:29.394Z,28.51
2018-08-22T11:23:16.198Z,28.53
2018-08-22T11:24:02.983Z,28.52
2018-08-22T11:24:50.156Z,28.52
2018-08-22T11:25:37.030Z,28.50
2018-08-22T11:26:24.604Z,28.48
2018-08-22T11:27:11.271Z,28.48
2018-08-22T11:27:58.941Z,28.48
2018-08-22T11:28:46.533Z,28.44
2018-08-22T11:29:33.191Z,28.41
2018-08-22T11:30:19.978Z,28.38
2018-08-22T11:31:06.686Z,28.31
2018-08-22T11:31:53.425Z,28.26
2018-08-22T11:32:40.102Z,28.27
2018-08-22T11:33:26.978Z,28.26
2018-08-22T11:34:13.582Z,28.26
2018-08-22T11:34:49.721Z,28.26
2018-08-22T11:35:24.409Z,28.26
2018-08-22T11:35:59.088Z,28.24
2018-08-22T11:36:34.586Z,28.24
2018-08-22T11:37:13.496Z,28.24
2018-08-22T11:37:51.395Z,28.25
2018-08-22T11:38:29.477Z,28.24
2018-08-22T11:39:09.945Z,28.23
2018-08-22T11:39:49.620Z,28.24
2018-08-22T11:40:27.614Z,28.25
2018-08-22T11:41:05.700Z,28.23
2018-08-22T11:41:43.756Z,28.21
2018-08-22T11:42:27.247Z,28.22
2018-08-22T11:43:05.091Z,28.21
2018-08-22T11:43:42.995Z,28.23
2018-08-22T11:44:21.645Z,28.23
2018-08-22T11:44:59.656Z,28.23
2018-08-22T11:45:39.117Z,28.24
2018-08-22T11:46:17.165Z,28.25
2018-08-22T11:46:54.995Z,28.26
2018-08-22T11:47:32.922Z,28.23
2018-08-22T11:48:10.877Z,28.22
2018-08-22T11:48:48.788Z,28.22
2018-08-22T11:49:27.065Z,28.22
2018-08-22T11:50:05.214Z,28.22
2018-08-22T11:50:43.571Z,28.22
2018-08-22T11:51:21.791Z,28.21
2018-08-22T11:52:00.222Z,28.23
2018-08-22T11:52:38.265Z,28.19
2018-08-22T11:53:16.354Z,28.22
2018-08-22T11:53:54.589Z,28.21
2018-08-22T11:54:32.984Z,28.21
2018-08-22T11:55:10.943Z,28.21
2018-08-22T11:55:49.165Z,28.21
2018-08-22T11:56:27.279Z,28.21
2018-08-22T11:57:05.450Z,28.21
2018-08-22T11:57:43.386Z,28.22
2018-08-22T11:58:21.313Z,28.21
2018-08-22T11:58:59.264Z,28.21
2018-08-22T11:59:37.129Z,28.23
2018-08-22T12:00:14.951Z,28.24
2018-08-22T12:00:52.876Z,28.24
2018-08-22T12:01:30.836Z,28.25
2018-08-22T12:02:08.901Z,28.26
2018-08-22T12:02:46.840Z,28.27
2018-08-22T12:03:24.958Z,28.28
2018-08-22T12:04:02.927Z,28.29
2018-08-22T12:04:40.956Z,28.30
2018-08-22T12:05:19.110Z,28.31
2018-08-22T12:05:57.414Z,28.31
2018-08-22T12:06:35.556Z,28.30
2018-08-22T12:07:13.806Z,28.31
2018-08-22T12:07:52.872Z,28.30
2018-08-22T12:08:31.185Z,28.30
2018-08-22T12:09:12.729Z,28.29
2018-08-22T12:09:50.941Z,28.28
2018-08-22T12:10:34.941Z,28.28
2018-08-22T12:11:14.077Z,28.26
2018-08-22T12:11:53.136Z,28.26
2018-08-22T12:12:31.211Z,28.25
2018-08-22T12:13:09.122Z,28.24
2018-08-22T12:13:47.120Z,28.24
2018-08-22T12:14:25.346Z,28.23
2018-08-22T12:15:03.303Z,28.24
2018-08-22T12:15:41.149Z,28.23
2018-08-22T12:16:19.417Z,28.23
2018-08-22T12:16:58.190Z,28.23
2018-08-22T12:17:36.194Z,28.23
2018-08-22T12:18:14.115Z,28.23
2018-08-22T12:18:53.087Z,28.18
2018-08-22T12:19:31.212Z,28.21
2018-08-22T12:20:09.201Z,28.23
2018-08-22T12:20:47.030Z,28.22
2018-08-22T12:21:24.883Z,28.20
2018-08-22T12:22:02.642Z,28.21
2018-08-22T12:22:40.603Z,28.20
2018-08-22T12:23:18.449Z,28.19
2018-08-22T12:23:56.547Z,28.21
2018-08-22T12:24:34.464Z,28.20
2018-08-22T12:25:12.611Z,28.21
2018-08-22T12:25:50.806Z,28.19
2018-08-22T12:26:28.676Z,28.20
2018-08-22T12:27:06.549Z,28.19
2018-08-22T12:27:44.586Z,28.19
2018-08-22T12:28:22.781Z,28.21
2018-08-22T12:29:00.705Z,28.21
2018-08-22T12:29:38.720Z,28.21
2018-08-22T12:30:16.745Z,28.16
2018-08-22T12:30:54.728Z,28.19
2018-08-22T12:31:32.784Z,28.19
2018-08-22T12:32:10.690Z,28.21
2018-08-22T12:32:48.761Z,28.22
2018-08-22T12:33:26.729Z,28.21
2018-08-22T12:34:04.592Z,28.23
2018-08-22T12:34:42.579Z,28.24
2018-08-22T12:35:34.361Z,28.23
2018-08-22T12:36:12.444Z,28.22
2018-08-22T12:36:50.454Z,28.23
2018-08-22T12:37:28.447Z,28.19
2018-08-22T12:38:06.312Z,28.19
2018-08-22T12:38:44.126Z,28.20
2018-08-22T12:39:22.236Z,28.20
2018-08-22T12:40:00.243Z,28.23
2018-08-22T12:40:38.334Z,28.23
2018-08-22T12:41:16.328Z,28.19
2018-08-22T12:41:54.226Z,28.24
2018-08-22T12:42:32.512Z,28.22
2018-08-22T12:43:10.478Z,28.22
2018-08-22T12:43:48.390Z,28.21
2018-08-22T12:44:26.484Z,28.23
2018-08-22T12:45:04.458Z,28.24
2018-08-22T12:45:42.452Z,28.24
2018-08-22T12:46:20.698Z,28.24
2018-08-22T12:46:58.510Z,28.23
2018-08-22T12:47:36.434Z,28.24
2018-08-22T12:48:14.376Z,28.24
2018-08-22T12:48:52.231Z,28.25
2018-08-22T12:49:30.336Z,28.25
2018-08-22T12:50:08.463Z,28.25
2018-08-22T12:50:46.380Z,28.25
2018-08-22T12:51:24.371Z,28.22
2018-08-22T12:52:02.220Z,28.24
2018-08-22T12:52:40.171Z,28.24
2018-08-22T12:53:18.198Z,28.22
2018-08-22T12:53:56.154Z,28.23
2018-08-22T12:54:34.037Z,28.23
2018-08-22T12:55:11.846Z,28.22
2018-08-22T12:55:49.962Z,28.21
2018-08-22T12:56:27.844Z,28.21
2018-08-22T12:57:05.803Z,28.17
2018-08-22T12:57:43.818Z,28.17
2018-08-22T12:58:21.666Z,28.16
2018-08-22T12:58:59.618Z,28.19
2018-08-22T12:59:37.599Z,28.17
2018-08-22T13:00:16.596Z,28.19
2018-08-22T13:00:54.616Z,28.21
2018-08-22T13:01:32.581Z,28.19
2018-08-22T13:02:10.544Z,28.18
2018-08-22T13:02:48.676Z,28.18
2018-08-22T13:03:26.620Z,28.18
2018-08-22T13:04:04.848Z,28.18
2018-08-22T13:04:43.102Z,28.17
2018-08-22T13:05:21.134Z,28.17
2018-08-22T13:05:59.042Z,28.17
2018-08-22T13:06:37.034Z,28.16
2018-08-22T13:07:14.873Z,28.12
2018-08-22T13:07:52.777Z,28.12
2018-08-22T13:08:30.765Z,28.10
2018-08-22T13:09:12.474Z,28.09
2018-08-22T13:09:50.449Z,28.04
2018-08-22T13:10:28.493Z,28.04
2018-08-22T13:11:06.609Z,28.02
2018-08-22T13:11:44.678Z,28.02
2018-08-22T13:12:22.608Z,28.02
2018-08-22T13:13:00.448Z,28.02
2018-08-22T13:13:38.444Z,28.00
2018-08-22T13:14:16.370Z,27.98
2018-08-22T13:14:54.488Z,27.96
2018-08-22T13:15:32.318Z,27.95
2018-08-22T13:16:10.435Z,27.92
2018-08-22T13:16:48.358Z,27.90
2018-08-22T13:17:26.492Z,27.88
2018-08-22T13:18:04.411Z,27.87
2018-08-22T13:18:42.402Z,27.88
2018-08-22T13:19:20.432Z,27.86
2018-08-22T13:19:58.583Z,27.85
2018-08-22T13:20:36.427Z,27.83
2018-08-22T13:21:14.289Z,27.85
2018-08-22T13:21:52.352Z,27.84
2018-08-22T13:22:30.322Z,27.84
2018-08-22T13:23:08.482Z,27.84
2018-08-22T13:23:46.456Z,27.84
2018-08-22T13:24:24.343Z,27.83
2018-08-22T13:25:02.316Z,27.83
2018-08-22T13:25:40.360Z,27.78
2018-08-22T13:26:18.157Z,27.82
2018-08-22T13:26:56.637Z,27.81
2018-08-22T13:27:34.674Z,27.80
2018-08-22T13:28:12.658Z,27.81
2018-08-22T13:28:50.594Z,27.81
2018-08-22T13:29:28.621Z,27.80
2018-08-22T13:30:06.526Z,27.79
2018-08-22T13:30:44.676Z,27.79
2018-08-22T13:31:22.726Z,27.75
2018-08-22T13:32:00.621Z,27.76
2018-08-22T13:32:38.443Z,27.73
2018-08-22T13:33:16.474Z,27.75
2018-08-22T13:33:54.337Z,27.74
2018-08-22T13:34:32.494Z,27.72
2018-08-22T13:35:10.516Z,27.72
2018-08-22T13:35:48.320Z,27.73
2018-08-22T13:36:26.166Z,27.74
2018-08-22T13:37:04.150Z,27.73
2018-08-22T13:37:42.077Z,27.75
2018-08-22T13:38:20.012Z,27.77
2018-08-22T13:38:58.042Z,27.77
2018-08-22T13:39:36.022Z,27.79
2018-08-22T13:40:13.874Z,27.80
2018-08-22T13:40:51.984Z,27.82
2018-08-22T13:41:29.957Z,27.80
2018-08-22T13:42:08.072Z,27.82
2018-08-22T13:42:46.025Z,27.83
2018-08-22T13:43:23.907Z,27.83
2018-08-22T13:44:02.017Z,27.82
2018-08-22T13:44:40.064Z,27.84
2018-08-22T13:45:18.104Z,27.83
2018-08-22T13:45:56.078Z,27.84
2018-08-22T13:46:34.025Z,27.83